Gage Information Page
Francis E. Walter Reservoir, PA

Provisional Data Subject to Revision
Francis E. Walter Reservoir, PA
Amber Threshold Elevation:1392 feet
Red Threshold Elevation:1441 feet
Date (ET) Elevation (ft) Storage (ac-ft) Inflow (cfs) Outflow (cfs)
Feb 1, 2015   2:15 pm 1299.24 1917 222 219
Feb 1, 2015   1:15 pm 1299.22 1915 214 222
Feb 1, 2015 12:15 pm 1299.20 1913 207 226
Feb 1, 2015 11:15 am 1299.20 1913 203 230
Feb 1, 2015 10:15 am 1299.21 1914 199 237
Feb 1, 2015   9:15 am 1299.23 1916 195 237
Feb 1, 2015   8:15 am 1299.24 1917 190 230
Feb 1, 2015   7:15 am 1299.27 1920 188 230
Feb 1, 2015   6:15 am 1299.29 1922 185 230
Feb 1, 2015   5:15 am 1299.33 1926 188 230
Feb 1, 2015   4:15 am 1299.36 1929 193 230
Feb 1, 2015   3:15 am 1299.39 1932 197 230
Feb 1, 2015   2:15 am 1299.43 1936 205 230
Feb 1, 2015   1:15 am 1299.47 1940 212 230
Feb 1, 2015 12:15 am 1299.51 1944 218 230
Jan 31, 2015 11:15 pm 1299.55 1948 221 230
Jan 31, 2015 10:15 pm 1299.59 1952 224 230
Jan 31, 2015   9:15 pm 1299.61 1954 219 230
Jan 31, 2015   8:15 pm 1299.61 1954 211 230
Jan 31, 2015   7:15 pm 1299.61 1954 200 230
Jan 31, 2015   6:15 pm 1299.60 1953 188 230
Jan 31, 2015   5:15 pm 1299.59 1952 179 230
Jan 31, 2015   4:15 pm 1299.59 1952 169 230
Jan 31, 2015   3:15 pm 1299.61 1954 161 230
Report Generated Feb 01, 2015 03:24 PM

NWS Web Info
USGS Web Info